EDDE/ERF METAR and TAF weather

Enter ICAO airport designator
Station Type Date Time Source
EDDE METAR 2020/12/05 05:50 UTC NOAA

EDDE 050550Z 18004KT CAVOK M02/M03 Q0993 NOSIG


Station Type Date Time Source
EDDE Decoded METAR 2020/12/05 05:50 UTC NOAA

Erfurt-Bindersleben, Germany (EDDE) 50-59N 010-58E 322M
Dec 05, 2020 - 12:50 AM EST / 2020.12.05 0550 UTC
Wind: from the S (180 degrees) at 5 MPH (4 KT):0
Visibility: greater than 7 mile(s):0
Temperature: 28 F (-2 C)
Windchill: 23 F (-5 C):1
Dew Point: 26 F (-3 C)
Relative Humidity: 92%
Pressure (altimeter): 29.32 in. Hg (0993 hPa)
ob: EDDE 050550Z 18004KT CAVOK M02/M03 Q0993 NOSIG
cycle: 6

Station Type Date Time Source
EDDE TAF 2020/12/05 06:27 UTC NOAA

TAF TAF EDDE 050500Z 0506/0606 22004KT CAVOK
BECMG 0517/0519 36005KT
BECMG 0521/0524 2000 BR BKN009

Example: see airport list